createdAt,value
2019-03-27T00:02:06.467Z,24.15
2019-03-27T00:04:37.619Z,22.73
2019-03-27T00:07:08.791Z,22.85
2019-03-27T00:09:39.913Z,21.20
2019-03-27T00:12:10.983Z,21.70
2019-03-27T00:14:42.022Z,21.65
2019-03-27T00:17:13.058Z,21.37
2019-03-27T00:19:44.596Z,20.65
2019-03-27T00:22:15.656Z,21.40
2019-03-27T00:24:46.672Z,22.55
2019-03-27T00:27:17.739Z,21.20
2019-03-27T00:29:49.851Z,23.20
2019-03-27T00:32:21.142Z,21.23
2019-03-27T00:34:52.246Z,22.27
2019-03-27T00:37:23.346Z,22.30
2019-03-27T00:39:55.516Z,24.00
2019-03-27T00:42:26.547Z,23.10
2019-03-27T00:44:58.266Z,24.02
2019-03-27T00:47:29.238Z,25.43
2019-03-27T00:50:00.305Z,24.07
2019-03-27T00:52:31.436Z,25.90
2019-03-27T00:55:02.472Z,23.85
2019-03-27T00:57:33.435Z,23.95
2019-03-27T01:00:25.932Z,22.52
2019-03-27T01:02:56.998Z,21.60
2019-03-27T01:05:29.241Z,22.55
2019-03-27T01:08:00.251Z,24.00
2019-03-27T01:10:31.364Z,21.87
2019-03-27T01:13:02.441Z,23.87
2019-03-27T01:15:39.600Z,23.05
2019-03-27T01:18:06.649Z,22.73
2019-03-27T01:20:37.683Z,21.87
2019-03-27T01:23:08.858Z,21.37
2019-03-27T01:25:39.814Z,22.02
2019-03-27T01:28:10.943Z,21.50
2019-03-27T01:30:41.941Z,22.30
2019-03-27T01:33:13.034Z,23.15
2019-03-27T01:35:44.139Z,22.70
2019-03-27T01:38:15.217Z,21.95
2019-03-27T01:40:46.311Z,21.90
2019-03-27T01:43:17.360Z,22.50
2019-03-27T01:45:53.347Z,20.80
2019-03-27T01:48:21.175Z,20.87
2019-03-27T01:50:52.245Z,21.70
2019-03-27T01:53:23.258Z,21.65
2019-03-27T01:55:54.313Z,24.20
2019-03-27T01:58:25.354Z,22.98
2019-03-27T02:00:56.391Z,23.92
2019-03-27T02:03:27.446Z,23.77
2019-03-27T02:05:58.581Z,24.37
2019-03-27T02:08:29.612Z,23.77
2019-03-27T02:11:00.659Z,25.23
2019-03-27T02:13:32.836Z,25.30
2019-03-27T02:16:07.058Z,29.27
2019-03-27T02:18:36.565Z,30.40
2019-03-27T02:21:07.594Z,31.85
2019-03-27T02:23:38.634Z,30.25
2019-03-27T02:26:09.673Z,33.02
2019-03-27T02:28:40.709Z,32.45
2019-03-27T02:31:11.761Z,33.95
2019-03-27T02:33:42.909Z,35.10
2019-03-27T02:36:13.871Z,34.88
2019-03-27T02:38:44.877Z,35.23
2019-03-27T02:41:15.956Z,34.70
2019-03-27T02:43:47.076Z,34.53
2019-03-27T02:46:25.154Z,34.83
2019-03-27T02:48:50.827Z,35.70
2019-03-27T02:51:21.861Z,37.30
2019-03-27T02:53:54.000Z,38.23
2019-03-27T02:56:25.082Z,38.53
2019-03-27T02:58:56.194Z,35.70
2019-03-27T03:01:27.273Z,37.50
2019-03-27T03:03:58.283Z,40.85
2019-03-27T03:06:29.272Z,37.53
2019-03-27T03:09:00.372Z,40.17
2019-03-27T03:11:31.733Z,38.58
2019-03-27T03:14:03.109Z,36.90
2019-03-27T03:16:41.813Z,38.78
2019-03-27T03:19:06.883Z,34.15
2019-03-27T03:21:38.077Z,41.90
2019-03-27T03:24:09.159Z,43.40
2019-03-27T03:26:40.205Z,43.83
2019-03-27T03:29:11.248Z,42.50
2019-03-27T03:31:42.212Z,42.75
2019-03-27T03:34:13.239Z,41.53
2019-03-27T03:36:44.375Z,44.13
2019-03-27T03:39:15.343Z,42.35
2019-03-27T03:41:46.494Z,38.05
2019-03-27T03:44:17.566Z,37.60
2019-03-27T03:46:59.577Z,40.45
2019-03-27T03:49:21.418Z,41.23
2019-03-27T03:51:52.533Z,40.33
2019-03-27T03:54:23.482Z,42.13
2019-03-27T03:56:55.617Z,45.48
2019-03-27T03:59:28.412Z,49.63
2019-03-27T04:02:03.039Z,49.33
2019-03-27T04:07:04.373Z,49.77
2019-03-27T04:09:35.396Z,50.85
2019-03-27T04:12:07.577Z,53.42
2019-03-27T04:14:38.705Z,52.58
2019-03-27T04:17:17.108Z,53.80
2019-03-27T04:19:42.414Z,52.63
2019-03-27T04:22:13.382Z,53.52
2019-03-27T04:24:44.412Z,55.43
2019-03-27T04:27:15.449Z,57.85
2019-03-27T04:29:46.988Z,60.38
2019-03-27T04:32:18.052Z,58.65
2019-03-27T04:34:49.083Z,58.23
2019-03-27T04:37:20.097Z,49.77
2019-03-27T04:39:51.131Z,48.30
2019-03-27T04:42:22.251Z,46.50
2019-03-27T04:44:53.357Z,49.18
2019-03-27T04:47:32.016Z,47.43
2019-03-27T04:49:57.177Z,46.90
2019-03-27T04:52:28.216Z,47.35
2019-03-27T04:54:59.258Z,55.12
2019-03-27T04:57:30.399Z,83.72
2019-03-27T05:00:01.449Z,90.87
2019-03-27T05:02:32.601Z,73.72
2019-03-27T05:05:06.654Z,72.80
2019-03-27T05:07:37.758Z,50.83
2019-03-27T05:10:08.899Z,42.93
2019-03-27T05:12:40.034Z,41.15
2019-03-27T05:15:12.097Z,32.93
2019-03-27T05:17:46.277Z,33.23
2019-03-27T05:20:16.019Z,32.17
2019-03-27T05:22:47.068Z,32.75
2019-03-27T05:25:18.169Z,38.50
2019-03-27T05:27:49.251Z,36.83
2019-03-27T05:30:30.176Z,38.60
2019-03-27T05:33:01.274Z,42.98
2019-03-27T05:35:32.814Z,48.68
2019-03-27T05:38:03.896Z,49.35
2019-03-27T05:40:35.082Z,40.25
2019-03-27T05:43:06.189Z,40.12
2019-03-27T05:45:37.774Z,39.38
2019-03-27T05:48:09.102Z,28.80
2019-03-27T05:50:40.199Z,32.30
2019-03-27T05:53:11.200Z,29.57
2019-03-27T05:55:42.176Z,26.33
2019-03-27T05:58:13.374Z,26.52
2019-03-27T06:00:44.529Z,27.77
2019-03-27T06:03:16.670Z,27.60
2019-03-27T06:05:47.673Z,26.73
2019-03-27T06:08:18.680Z,27.22
2019-03-27T06:10:50.779Z,27.70
2019-03-27T06:13:21.782Z,26.50
2019-03-27T06:15:52.857Z,29.65
2019-03-27T06:18:23.940Z,27.82
2019-03-27T06:20:55.051Z,32.73
2019-03-27T06:23:26.128Z,35.63
2019-03-27T06:25:57.241Z,33.33
2019-03-27T06:28:28.328Z,36.13
2019-03-27T06:30:59.374Z,38.25
2019-03-27T06:33:30.997Z,36.65
2019-03-27T06:36:02.143Z,37.40
2019-03-27T06:38:33.293Z,37.17
2019-03-27T06:41:04.429Z,38.65
2019-03-27T06:43:35.524Z,37.85
2019-03-27T06:46:06.635Z,34.60
2019-03-27T06:48:37.777Z,38.70
2019-03-27T06:51:08.882Z,38.05
2019-03-27T06:53:39.895Z,35.38
2019-03-27T06:56:11.030Z,34.25
2019-03-27T06:58:53.881Z,36.42
2019-03-27T07:01:15.076Z,29.40
2019-03-27T07:03:46.190Z,24.75
2019-03-27T07:06:17.348Z,27.73
2019-03-27T07:08:48.364Z,15.28
2019-03-27T07:11:19.354Z,15.23
2019-03-27T07:13:50.508Z,12.20
2019-03-27T07:16:21.507Z,11.20
2019-03-27T07:18:52.627Z,9.03
2019-03-27T07:21:23.785Z,8.40
2019-03-27T07:23:55.286Z,8.98
2019-03-27T07:26:26.498Z,6.10
2019-03-27T07:29:00.131Z,5.47
2019-03-27T07:31:31.075Z,4.80
2019-03-27T07:34:02.059Z,6.22
2019-03-27T07:36:33.066Z,5.05
2019-03-27T07:39:10.790Z,7.58
2019-03-27T07:41:38.320Z,7.83
2019-03-27T07:44:09.360Z,6.50
2019-03-27T07:46:41.986Z,5.62
2019-03-27T07:49:12.888Z,4.20
2019-03-27T07:51:43.737Z,3.42
2019-03-27T07:54:14.644Z,4.12
2019-03-27T07:56:45.550Z,3.70
2019-03-27T07:59:16.517Z,3.60
2019-03-27T08:01:47.642Z,3.50
2019-03-27T08:04:18.752Z,4.12
2019-03-27T08:06:49.645Z,3.58
2019-03-27T08:09:23.006Z,4.17
2019-03-27T08:11:53.274Z,6.05
2019-03-27T08:14:24.263Z,4.40
2019-03-27T08:16:55.251Z,3.35
2019-03-27T08:19:26.180Z,3.72
2019-03-27T08:22:04.969Z,3.85
2019-03-27T08:24:32.521Z,4.40
2019-03-27T08:27:03.790Z,4.12
2019-03-27T08:29:38.433Z,3.45
2019-03-27T08:32:12.605Z,3.27
2019-03-27T08:34:43.544Z,3.35
2019-03-27T08:37:15.587Z,3.50
2019-03-27T08:39:46.643Z,3.65
2019-03-27T08:42:17.731Z,3.90
2019-03-27T08:44:48.862Z,4.37
2019-03-27T08:47:19.866Z,3.62
2019-03-27T08:49:51.168Z,3.50
2019-03-27T08:52:22.219Z,4.05
2019-03-27T08:54:53.457Z,4.45
2019-03-27T08:57:24.512Z,3.95
2019-03-27T08:59:55.568Z,4.03
2019-03-27T09:02:26.412Z,4.17
2019-03-27T09:04:57.477Z,4.50
2019-03-27T09:07:28.499Z,4.33
2019-03-27T09:09:59.561Z,5.60
2019-03-27T09:12:30.559Z,4.62
2019-03-27T09:15:01.633Z,3.87
2019-03-27T09:17:32.627Z,3.67
2019-03-27T09:20:04.786Z,4.37
2019-03-27T09:22:35.799Z,5.03
2019-03-27T09:25:07.011Z,6.53
2019-03-27T09:27:37.948Z,6.65
2019-03-27T09:30:11.712Z,6.58
2019-03-27T09:32:42.679Z,6.12
2019-03-27T09:35:14.645Z,4.87
2019-03-27T09:37:45.645Z,5.42
2019-03-27T09:40:16.713Z,5.08
2019-03-27T09:42:47.768Z,5.10
2019-03-27T09:45:18.769Z,4.65
2019-03-27T09:47:49.909Z,4.15
2019-03-27T09:50:21.051Z,4.62
2019-03-27T09:52:51.903Z,4.33
2019-03-27T09:55:22.935Z,4.62
2019-03-27T09:57:54.029Z,4.58
2019-03-27T10:00:39.723Z,4.95
2019-03-27T10:03:10.710Z,4.42
2019-03-27T10:05:41.689Z,4.70
2019-03-27T10:08:12.622Z,5.17
2019-03-27T10:10:43.827Z,6.08
2019-03-27T10:13:15.088Z,4.58
2019-03-27T10:15:46.307Z,4.53
2019-03-27T10:18:17.330Z,4.47
2019-03-27T10:20:48.267Z,5.20
2019-03-27T10:23:19.195Z,4.30
2019-03-27T10:25:50.366Z,4.70
2019-03-27T10:28:21.722Z,4.25
2019-03-27T10:30:52.739Z,4.75
2019-03-27T10:33:23.816Z,5.10
2019-03-27T10:35:55.009Z,4.60
2019-03-27T10:38:26.132Z,4.70
2019-03-27T10:40:57.078Z,4.58
2019-03-27T10:43:28.018Z,5.45
2019-03-27T10:45:58.944Z,5.00
2019-03-27T10:48:29.969Z,8.50
2019-03-27T10:51:00.834Z,8.73
2019-03-27T10:53:31.885Z,4.70
2019-03-27T10:56:03.190Z,5.60
2019-03-27T10:58:34.046Z,5.53
2019-03-27T11:01:07.269Z,6.35
2019-03-27T11:03:37.885Z,6.10
2019-03-27T11:06:08.827Z,5.30
2019-03-27T11:08:39.876Z,6.50
2019-03-27T11:11:10.811Z,5.90
2019-03-27T11:13:41.680Z,5.83
2019-03-27T11:16:12.604Z,6.12
2019-03-27T11:18:43.628Z,7.20
2019-03-27T11:21:15.570Z,5.55
2019-03-27T11:23:46.610Z,6.40
2019-03-27T11:26:17.598Z,6.35
2019-03-27T11:28:48.710Z,6.83
2019-03-27T11:31:19.890Z,7.10
2019-03-27T11:33:51.023Z,7.30
2019-03-27T11:36:22.103Z,6.83
2019-03-27T11:38:53.158Z,6.37
2019-03-27T11:41:24.318Z,6.47
2019-03-27T11:43:55.386Z,6.12
2019-03-27T11:46:26.542Z,7.10
2019-03-27T11:48:57.456Z,6.97
2019-03-27T11:51:29.416Z,7.28
2019-03-27T11:54:00.432Z,7.80
2019-03-27T11:56:31.408Z,6.90
2019-03-27T11:59:02.354Z,5.95
2019-03-27T12:01:40.629Z,7.33
2019-03-27T12:04:06.219Z,7.67
2019-03-27T12:06:37.227Z,6.97
2019-03-27T12:09:08.205Z,7.58
2019-03-27T12:11:39.261Z,8.45
2019-03-27T12:14:12.296Z,8.08
2019-03-27T12:16:42.968Z,6.93
2019-03-27T12:19:13.884Z,9.38
2019-03-27T12:21:44.930Z,10.03
2019-03-27T12:24:16.021Z,11.73
2019-03-27T12:26:47.137Z,11.78
2019-03-27T12:29:18.459Z,12.03
2019-03-27T12:31:49.525Z,14.05
2019-03-27T12:34:20.467Z,15.50
2019-03-27T12:36:51.596Z,15.35
2019-03-27T12:39:22.623Z,15.53
2019-03-27T12:41:53.631Z,17.17
2019-03-27T12:44:24.655Z,17.65
2019-03-27T12:46:55.779Z,18.50
2019-03-27T12:49:26.720Z,19.37
2019-03-27T12:51:57.869Z,21.02
2019-03-27T12:54:28.941Z,21.87
2019-03-27T12:57:00.141Z,19.92
2019-03-27T12:59:31.164Z,18.42
2019-03-27T13:02:02.132Z,18.40
2019-03-27T13:04:33.097Z,17.12
2019-03-27T13:07:04.185Z,19.60
2019-03-27T13:09:35.149Z,18.62
2019-03-27T13:12:06.243Z,21.95
2019-03-27T13:14:37.349Z,23.80
2019-03-27T13:17:08.439Z,23.05
2019-03-27T13:19:39.398Z,23.83
2019-03-27T13:22:10.484Z,19.37
2019-03-27T13:24:41.518Z,19.15
2019-03-27T13:27:12.593Z,21.07
2019-03-27T13:29:43.727Z,24.27
2019-03-27T13:32:14.775Z,21.93
2019-03-27T13:34:45.875Z,21.10
2019-03-27T13:37:16.954Z,25.88
2019-03-27T13:39:48.009Z,28.47
2019-03-27T13:42:18.993Z,36.25
2019-03-27T13:44:50.217Z,30.97
2019-03-27T13:47:21.285Z,38.70
2019-03-27T13:49:52.241Z,34.48
2019-03-27T13:52:23.430Z,31.65
2019-03-27T13:54:54.555Z,29.30
2019-03-27T13:57:25.671Z,29.50
2019-03-27T13:59:56.817Z,30.85
2019-03-27T14:02:27.890Z,33.98
2019-03-27T14:04:58.941Z,35.75
2019-03-27T14:07:31.126Z,38.60
2019-03-27T14:10:02.138Z,29.75
2019-03-27T14:12:33.286Z,21.27
2019-03-27T14:15:07.726Z,17.27
2019-03-27T14:17:38.880Z,18.42
2019-03-27T14:20:11.586Z,15.18
2019-03-27T14:22:42.666Z,15.75
2019-03-27T14:25:13.719Z,15.53
2019-03-27T14:27:45.611Z,16.23
2019-03-27T14:30:22.792Z,20.40
2019-03-27T14:32:53.814Z,24.10
2019-03-27T14:35:24.864Z,32.73
2019-03-27T14:37:55.892Z,35.60
2019-03-27T14:40:27.030Z,40.95
2019-03-27T14:42:58.089Z,44.77
2019-03-27T14:45:29.070Z,49.00
2019-03-27T14:48:01.552Z,40.98
2019-03-27T14:50:32.653Z,37.80
2019-03-27T14:53:03.790Z,39.78
2019-03-27T14:55:34.787Z,42.98
2019-03-27T14:58:05.986Z,49.40
2019-03-27T15:00:37.008Z,54.15
2019-03-27T15:03:08.050Z,63.63
2019-03-27T15:05:39.496Z,42.05
2019-03-27T15:08:10.677Z,58.75
2019-03-27T15:10:41.770Z,43.68
2019-03-27T15:13:15.285Z,42.05
2019-03-27T15:15:45.671Z,39.85
2019-03-27T15:18:16.952Z,42.35
2019-03-27T15:20:49.054Z,44.98
2019-03-27T15:23:20.191Z,42.13
2019-03-27T15:25:51.308Z,38.50
2019-03-27T15:28:22.722Z,39.80
2019-03-27T15:30:53.809Z,32.17
2019-03-27T15:33:24.835Z,32.25
2019-03-27T15:35:55.897Z,59.30
2019-03-27T15:38:26.871Z,53.73
2019-03-27T15:40:57.978Z,34.65
2019-03-27T15:43:29.119Z,32.93
2019-03-27T15:46:00.257Z,29.98
2019-03-27T15:48:31.305Z,30.02
2019-03-27T15:51:03.337Z,30.23
2019-03-27T15:53:34.311Z,31.77
2019-03-27T15:56:05.351Z,29.42
2019-03-27T15:58:36.393Z,30.62
2019-03-27T16:01:07.610Z,27.50
2019-03-27T16:03:38.747Z,28.10
2019-03-27T16:06:09.999Z,28.52
2019-03-27T16:08:41.299Z,33.70
2019-03-27T16:11:12.254Z,28.98
2019-03-27T16:13:43.440Z,27.13
2019-03-27T16:16:14.501Z,25.88
2019-03-27T16:18:45.625Z,28.05
2019-03-27T16:21:16.742Z,25.88
2019-03-27T16:23:47.697Z,26.52
2019-03-27T16:26:18.763Z,23.98
2019-03-27T16:28:49.802Z,31.20
2019-03-27T16:31:22.850Z,36.30
2019-03-27T16:33:54.024Z,26.60
2019-03-27T16:36:25.084Z,30.68
2019-03-27T16:38:56.079Z,34.53
2019-03-27T16:41:27.057Z,30.60
2019-03-27T16:43:58.045Z,33.20
2019-03-27T16:46:29.043Z,30.57
2019-03-27T16:49:00.702Z,31.00
2019-03-27T16:51:31.713Z,35.83
2019-03-27T16:54:02.914Z,25.08
2019-03-27T16:56:33.946Z,19.90
2019-03-27T16:59:04.969Z,18.80
2019-03-27T17:01:36.006Z,25.23
2019-03-27T17:04:07.055Z,24.45
2019-03-27T17:06:38.301Z,24.90
2019-03-27T17:09:09.446Z,25.62
2019-03-27T17:11:40.580Z,24.82
2019-03-27T17:14:11.662Z,31.75
2019-03-27T17:16:42.667Z,25.68
2019-03-27T17:19:13.647Z,21.52
2019-03-27T17:21:44.724Z,22.80
2019-03-27T17:24:15.650Z,19.30
2019-03-27T17:26:46.732Z,21.65
2019-03-27T17:29:17.678Z,16.40
2019-03-27T17:31:48.827Z,18.40
2019-03-27T17:34:19.853Z,19.15
2019-03-27T17:36:50.791Z,15.38
2019-03-27T17:39:21.839Z,15.53
2019-03-27T17:41:52.948Z,14.90
2019-03-27T17:44:23.897Z,14.33
2019-03-27T17:46:54.962Z,15.70
2019-03-27T17:49:25.996Z,17.48
2019-03-27T17:51:57.094Z,17.85
2019-03-27T17:54:28.173Z,18.50
2019-03-27T17:56:59.277Z,19.23
2019-03-27T17:59:30.247Z,19.32
2019-03-27T18:02:01.326Z,20.57
2019-03-27T18:04:32.353Z,23.75
2019-03-27T18:07:03.448Z,26.27
2019-03-27T18:09:34.556Z,21.68
2019-03-27T18:12:05.621Z,19.62
2019-03-27T18:14:36.828Z,18.73
2019-03-27T18:17:07.929Z,19.35
2019-03-27T18:19:39.011Z,18.10
2019-03-27T18:22:11.066Z,16.15
2019-03-27T18:24:42.228Z,16.95
2019-03-27T18:27:13.274Z,21.73
2019-03-27T18:29:44.302Z,22.90
2019-03-27T18:32:15.347Z,22.35
2019-03-27T18:34:46.407Z,24.57
2019-03-27T18:37:17.358Z,22.13
2019-03-27T18:39:48.485Z,20.72
2019-03-27T18:42:19.510Z,21.93
2019-03-27T18:44:50.570Z,26.62
2019-03-27T18:47:21.602Z,29.30
2019-03-27T18:49:52.554Z,29.90
2019-03-27T18:52:23.588Z,27.37
2019-03-27T18:54:54.946Z,31.60
2019-03-27T18:57:26.169Z,35.08
2019-03-27T18:59:57.258Z,27.85
2019-03-27T19:02:28.420Z,31.45
2019-03-27T19:04:59.731Z,30.88
2019-03-27T19:07:31.145Z,41.60
2019-03-27T19:10:02.316Z,47.23
2019-03-27T19:12:33.747Z,46.88
2019-03-27T19:15:09.327Z,45.65
2019-03-27T19:17:40.579Z,54.98
2019-03-27T19:20:11.694Z,48.87
2019-03-27T19:22:42.871Z,50.70
2019-03-27T19:25:13.900Z,47.23
2019-03-27T19:27:44.991Z,52.35
2019-03-27T19:30:16.158Z,49.13
2019-03-27T19:32:47.219Z,52.45
2019-03-27T19:35:18.187Z,53.35
2019-03-27T19:37:49.639Z,42.88
2019-03-27T19:40:20.689Z,49.25
2019-03-27T19:42:51.893Z,44.03
2019-03-27T19:45:22.938Z,37.95
2019-03-27T19:47:53.995Z,42.33
2019-03-27T19:50:25.116Z,41.10
2019-03-27T19:52:56.116Z,39.45
2019-03-27T19:55:27.370Z,39.50
2019-03-27T19:57:58.525Z,40.35
2019-03-27T20:00:29.823Z,37.60
2019-03-27T20:03:00.852Z,38.40
2019-03-27T20:05:31.983Z,40.20
2019-03-27T20:08:03.139Z,40.48
2019-03-27T20:10:34.162Z,41.77
2019-03-27T20:13:05.226Z,47.43
2019-03-27T20:15:36.453Z,39.75
2019-03-27T20:18:07.576Z,43.92
2019-03-27T20:20:38.740Z,46.48
2019-03-27T20:23:15.053Z,43.33
2019-03-27T20:25:42.740Z,41.02
2019-03-27T20:28:13.782Z,45.17
2019-03-27T20:30:44.926Z,40.78
2019-03-27T20:33:15.963Z,31.87
2019-03-27T20:35:47.261Z,32.20
2019-03-27T20:38:18.373Z,36.73
2019-03-27T20:40:49.513Z,35.52
2019-03-27T20:43:20.705Z,36.05
2019-03-27T20:45:53.114Z,39.48
2019-03-27T20:48:25.439Z,47.48
2019-03-27T20:50:56.611Z,48.23
2019-03-27T20:53:27.710Z,42.05
2019-03-27T20:55:58.859Z,39.08
2019-03-27T20:58:30.943Z,39.88
2019-03-27T21:01:02.064Z,30.88
2019-03-27T21:03:33.317Z,30.85
2019-03-27T21:06:04.350Z,32.73
2019-03-27T21:08:35.423Z,31.77
2019-03-27T21:11:06.676Z,28.45
2019-03-27T21:13:40.952Z,27.42
2019-03-27T21:16:10.578Z,24.97
2019-03-27T21:18:41.824Z,25.12
2019-03-27T21:21:12.949Z,26.20
2019-03-27T21:23:44.003Z,22.65
2019-03-27T21:26:14.967Z,24.57
2019-03-27T21:28:45.988Z,22.77
2019-03-27T21:31:17.186Z,24.25
2019-03-27T21:33:48.323Z,23.05
2019-03-27T21:36:19.467Z,23.10
2019-03-27T21:38:50.445Z,25.12
2019-03-27T21:41:21.515Z,26.87
2019-03-27T21:43:52.569Z,27.70
2019-03-27T21:46:23.742Z,25.70
2019-03-27T21:48:54.835Z,24.82
2019-03-27T21:51:25.877Z,25.68
2019-03-27T21:53:56.833Z,25.60
2019-03-27T21:56:27.859Z,26.65
2019-03-27T21:59:02.279Z,24.80
2019-03-27T22:01:31.593Z,21.47
2019-03-27T22:04:02.896Z,21.93
2019-03-27T22:06:34.070Z,20.27
2019-03-27T22:09:06.581Z,19.92
2019-03-27T22:11:37.861Z,17.23
2019-03-27T22:14:08.831Z,21.60
2019-03-27T22:16:39.944Z,21.90
2019-03-27T22:19:10.927Z,25.75
2019-03-27T22:21:41.946Z,23.20
2019-03-27T22:24:13.015Z,22.07
2019-03-27T22:26:44.063Z,22.85
2019-03-27T22:29:15.094Z,22.55
2019-03-27T22:31:46.216Z,23.12
2019-03-27T22:34:17.268Z,24.52
2019-03-27T22:36:48.284Z,25.55
2019-03-27T22:39:19.351Z,29.80
2019-03-27T22:41:50.338Z,28.67
2019-03-27T22:44:21.499Z,32.05
2019-03-27T22:46:52.457Z,33.33
2019-03-27T22:49:23.620Z,37.70
2019-03-27T22:51:54.674Z,37.88
2019-03-27T22:54:25.819Z,35.40
2019-03-27T22:56:56.958Z,36.23
2019-03-27T22:59:28.073Z,32.65
2019-03-27T23:01:59.167Z,32.17
2019-03-27T23:04:30.327Z,35.40
2019-03-27T23:07:01.426Z,34.00
2019-03-27T23:09:32.640Z,38.50
2019-03-27T23:12:03.862Z,41.23
2019-03-27T23:14:34.963Z,32.08
2019-03-27T23:17:06.001Z,33.53
2019-03-27T23:19:37.045Z,33.80
2019-03-27T23:22:08.073Z,32.03
2019-03-27T23:24:39.111Z,30.95
2019-03-27T23:27:10.133Z,29.77
2019-03-27T23:29:41.159Z,28.27
2019-03-27T23:32:12.185Z,29.15
2019-03-27T23:34:43.391Z,27.50
2019-03-27T23:37:14.533Z,26.37
2019-03-27T23:39:46.027Z,26.93
2019-03-27T23:42:17.065Z,28.47
2019-03-27T23:44:48.210Z,29.72
2019-03-27T23:47:19.206Z,29.40
2019-03-27T23:49:50.293Z,28.00
2019-03-27T23:52:21.397Z,28.67
2019-03-27T23:54:52.392Z,27.60
2019-03-27T23:57:23.328Z,25.57
2019-03-27T23:59:54.394Z,28.90
